Portada
METAR-TAF:

METAR-TAF

Aeroports :

Seward, Alaska, Estats Units d'Amèrica

latitud: 60-07N, longitud: 149-27W, altitud: 9 m

Observació

L'informe es va fer fa 13 minuts, a les 23:53 UTC
Vent 3 kt del Nord/Nord-Est
Temperatura 4°C
Humitat 93%
Pressió 982 hPa
Visibilitat: 4.8 km
Escasses núvols a una alçada de 1500 ft
Cel cobert a una alçada de 2400 ft
pluja, boirina

METAR: PAWD 212353Z AUTO 02003KT 3SM RA BR FEW015 OVC024 04/03 A2901 RMK AO2 SLP824 P0017 60071 T00390028 10061 20039 58048 TSNO

Hora: 15:06 (00:06 UTC)


TAF: manca

Observacions i pronòstics meteorològics de més de 4000 aeroports (METAR i TAF).

Les estacions disponibles són els punts grocs i vermells al mapa.

Posi el ratolí al punt desitjat per veure el nom de l'estació.

Feu clic per veure les observacions i els pronòstics meteorològics.

Per canviar el mapa: feu clic els botons verds amb una creu de color negre per apropar; al botó verd amb un guió per allunyar la imatge; o en les fletxes verdes per a mapes adjacents.


METAR-TAF: